sensor_id;sensor_type;location;lat;lon;timestamp;P1;durP1;ratioP1;P2;durP2;ratioP2
48199;SDS011;33990;44.602;10.976;2022-11-11T00:01:54;10.05;;;7.57;;
48199;SDS011;33990;44.602;10.976;2022-11-11T00:04:40;7.63;;;6.85;;
48199;SDS011;33990;44.602;10.976;2022-11-11T00:07:26;8.55;;;7.70;;
48199;SDS011;33990;44.602;10.976;2022-11-11T00:10:14;7.82;;;6.93;;
48199;SDS011;33990;44.602;10.976;2022-11-11T00:13:00;9.82;;;8.43;;
48199;SDS011;33990;44.602;10.976;2022-11-11T00:15:46;8.07;;;6.78;;
48199;SDS011;33990;44.602;10.976;2022-11-11T00:18:32;8.43;;;7.47;;
48199;SDS011;33990;44.602;10.976;2022-11-11T00:21:37;10.50;;;7.65;;
48199;SDS011;33990;44.602;10.976;2022-11-11T00:24:42;8.98;;;7.82;;
48199;SDS011;33990;44.602;10.976;2022-11-11T00:27:47;8.75;;;7.05;;
48199;SDS011;33990;44.602;10.976;2022-11-11T00:30:33;9.98;;;8.68;;
48199;SDS011;33990;44.602;10.976;2022-11-11T00:33:19;9.02;;;8.10;;
48199;SDS011;33990;44.602;10.976;2022-11-11T00:36:05;8.30;;;7.43;;
48199;SDS011;33990;44.602;10.976;2022-11-11T00:38:52;8.25;;;7.43;;
48199;SDS011;33990;44.602;10.976;2022-11-11T00:41:40;9.10;;;8.02;;
48199;SDS011;33990;44.602;10.976;2022-11-11T00:44:26;8.10;;;7.30;;
48199;SDS011;33990;44.602;10.976;2022-11-11T00:47:12;9.57;;;8.48;;
48199;SDS011;33990;44.602;10.976;2022-11-11T00:50:18;9.30;;;8.27;;
48199;SDS011;33990;44.602;10.976;2022-11-11T00:53:24;9.07;;;7.35;;
48199;SDS011;33990;44.602;10.976;2022-11-11T00:56:12;9.77;;;8.23;;
48199;SDS011;33990;44.602;10.976;2022-11-11T00:58:58;8.52;;;7.63;;
48199;SDS011;33990;44.602;10.976;2022-11-11T01:01:44;8.93;;;8.02;;
48199;SDS011;33990;44.602;10.976;2022-11-11T01:04:30;11.75;;;8.68;;
48199;SDS011;33990;44.602;10.976;2022-11-11T01:07:16;10.40;;;9.00;;
48199;SDS011;33990;44.602;10.976;2022-11-11T01:10:02;9.32;;;8.32;;
48199;SDS011;33990;44.602;10.976;2022-11-11T01:12:52;9.25;;;7.75;;
48199;SDS011;33990;44.602;10.976;2022-11-11T01:16:01;9.05;;;7.57;;
48199;SDS011;33990;44.602;10.976;2022-11-11T01:18:50;10.05;;;8.88;;
48199;SDS011;33990;44.602;10.976;2022-11-11T01:21:37;9.93;;;8.93;;
48199;SDS011;33990;44.602;10.976;2022-11-11T01:24:23;9.35;;;8.23;;
48199;SDS011;33990;44.602;10.976;2022-11-11T01:27:09;9.25;;;8.35;;
48199;SDS011;33990;44.602;10.976;2022-11-11T01:29:55;12.85;;;9.45;;
48199;SDS011;33990;44.602;10.976;2022-11-11T01:32:41;8.73;;;7.82;;
48199;SDS011;33990;44.602;10.976;2022-11-11T01:35:27;8.77;;;7.88;;
48199;SDS011;33990;44.602;10.976;2022-11-11T01:38:13;10.02;;;8.73;;
48199;SDS011;33990;44.602;10.976;2022-11-11T01:40:59;9.30;;;8.32;;
48199;SDS011;33990;44.602;10.976;2022-11-11T01:46:59;9.57;;;8.43;;
48199;SDS011;33990;44.602;10.976;2022-11-11T01:49:55;9.93;;;8.52;;
48199;SDS011;33990;44.602;10.976;2022-11-11T01:52:46;9.23;;;7.72;;
48199;SDS011;33990;44.602;10.976;2022-11-11T01:55:32;10.88;;;9.77;;
48199;SDS011;33990;44.602;10.976;2022-11-11T01:58:18;9.80;;;8.57;;
48199;SDS011;33990;44.602;10.976;2022-11-11T02:01:05;10.18;;;8.43;;
48199;SDS011;33990;44.602;10.976;2022-11-11T02:03:52;10.23;;;8.68;;
48199;SDS011;33990;44.602;10.976;2022-11-11T02:06:59;9.38;;;8.27;;
48199;SDS011;33990;44.602;10.976;2022-11-11T02:09:49;10.63;;;9.38;;
48199;SDS011;33990;44.602;10.976;2022-11-11T02:12:37;9.65;;;8.65;;
48199;SDS011;33990;44.602;10.976;2022-11-11T02:15:41;11.05;;;8.80;;
48199;SDS011;33990;44.602;10.976;2022-11-11T02:18:27;11.40;;;9.30;;
48199;SDS011;33990;44.602;10.976;2022-11-11T02:21:22;11.00;;;9.32;;
48199;SDS011;33990;44.602;10.976;2022-11-11T02:24:21;9.90;;;8.90;;
48199;SDS011;33990;44.602;10.976;2022-11-11T02:27:09;10.27;;;9.18;;
48199;SDS011;33990;44.602;10.976;2022-11-11T02:29:59;11.63;;;9.88;;
48199;SDS011;33990;44.602;10.976;2022-11-11T02:32:47;13.02;;;9.68;;
48199;SDS011;33990;44.602;10.976;2022-11-11T02:35:37;10.43;;;9.32;;
48199;SDS011;33990;44.602;10.976;2022-11-11T02:38:25;10.77;;;9.18;;
48199;SDS011;33990;44.602;10.976;2022-11-11T02:41:11;10.30;;;8.75;;
48199;SDS011;33990;44.602;10.976;2022-11-11T02:44:16;11.13;;;9.30;;
48199;SDS011;33990;44.602;10.976;2022-11-11T02:47:02;10.45;;;8.52;;
48199;SDS011;33990;44.602;10.976;2022-11-11T02:49:49;11.00;;;9.90;;
48199;SDS011;33990;44.602;10.976;2022-11-11T02:52:35;11.18;;;8.98;;
48199;SDS011;33990;44.602;10.976;2022-11-11T02:55:21;9.50;;;8.50;;
48199;SDS011;33990;44.602;10.976;2022-11-11T02:58:07;10.27;;;9.10;;
48199;SDS011;33990;44.602;10.976;2022-11-11T03:00:53;10.63;;;9.45;;
48199;SDS011;33990;44.602;10.976;2022-11-11T03:03:39;10.00;;;8.85;;
48199;SDS011;33990;44.602;10.976;2022-11-11T03:06:25;10.38;;;9.27;;
48199;SDS011;33990;44.602;10.976;2022-11-11T03:09:11;11.13;;;9.55;;
48199;SDS011;33990;44.602;10.976;2022-11-11T03:11:57;10.68;;;9.57;;
48199;SDS011;33990;44.602;10.976;2022-11-11T03:14:43;10.45;;;9.38;;
48199;SDS011;33990;44.602;10.976;2022-11-11T03:17:29;10.65;;;9.07;;
48199;SDS011;33990;44.602;10.976;2022-11-11T03:20:24;10.88;;;9.63;;
48199;SDS011;33990;44.602;10.976;2022-11-11T03:23:29;10.07;;;9.07;;
48199;SDS011;33990;44.602;10.976;2022-11-11T03:26:14;9.95;;;8.95;;
48199;SDS011;33990;44.602;10.976;2022-11-11T03:29:00;9.90;;;8.90;;
48199;SDS011;33990;44.602;10.976;2022-11-11T03:31:46;10.52;;;9.43;;
48199;SDS011;33990;44.602;10.976;2022-11-11T03:34:32;10.05;;;9.02;;
48199;SDS011;33990;44.602;10.976;2022-11-11T03:37:18;9.45;;;8.45;;
48199;SDS011;33990;44.602;10.976;2022-11-11T03:40:36;10.27;;;9.18;;
48199;SDS011;33990;44.602;10.976;2022-11-11T03:43:23;11.15;;;9.55;;
48199;SDS011;33990;44.602;10.976;2022-11-11T03:46:14;11.13;;;9.75;;
48199;SDS011;33990;44.602;10.976;2022-11-11T03:49:00;10.77;;;9.38;;
48199;SDS011;33990;44.602;10.976;2022-11-11T03:51:46;10.13;;;9.13;;
48199;SDS011;33990;44.602;10.976;2022-11-11T03:54:31;10.60;;;9.43;;
48199;SDS011;33990;44.602;10.976;2022-11-11T03:57:17;10.73;;;9.32;;
48199;SDS011;33990;44.602;10.976;2022-11-11T04:00:15;10.27;;;9.25;;
48199;SDS011;33990;44.602;10.976;2022-11-11T04:03:14;10.98;;;9.80;;
48199;SDS011;33990;44.602;10.976;2022-11-11T04:06:22;11.32;;;10.07;;
48199;SDS011;33990;44.602;10.976;2022-11-11T04:09:26;10.57;;;9.48;;
48199;SDS011;33990;44.602;10.976;2022-11-11T04:12:31;10.38;;;9.10;;
48199;SDS011;33990;44.602;10.976;2022-11-11T04:15:39;10.55;;;9.45;;
48199;SDS011;33990;44.602;10.976;2022-11-11T04:18:44;10.85;;;9.20;;
48199;SDS011;33990;44.602;10.976;2022-11-11T04:21:48;11.38;;;10.23;;
48199;SDS011;33990;44.602;10.976;2022-11-11T04:24:34;10.43;;;9.32;;
48199;SDS011;33990;44.602;10.976;2022-11-11T04:27:39;11.65;;;10.55;;
48199;SDS011;33990;44.602;10.976;2022-11-11T04:30:25;10.90;;;9.00;;
48199;SDS011;33990;44.602;10.976;2022-11-11T04:33:11;11.13;;;9.98;;
48199;SDS011;33990;44.602;10.976;2022-11-11T04:35:56;10.48;;;9.38;;
48199;SDS011;33990;44.602;10.976;2022-11-11T04:38:42;11.82;;;9.50;;
48199;SDS011;33990;44.602;10.976;2022-11-11T04:41:47;13.27;;;10.00;;
48199;SDS011;33990;44.602;10.976;2022-11-11T04:44:52;10.98;;;9.80;;
48199;SDS011;33990;44.602;10.976;2022-11-11T04:48:08;10.73;;;9.63;;
48199;SDS011;33990;44.602;10.976;2022-11-11T04:50:54;10.63;;;9.52;;
48199;SDS011;33990;44.602;10.976;2022-11-11T04:53:40;11.80;;;9.52;;
48199;SDS011;33990;44.602;10.976;2022-11-11T04:56:26;11.80;;;9.43;;
48199;SDS011;33990;44.602;10.976;2022-11-11T04:59:31;11.20;;;9.75;;
48199;SDS011;33990;44.602;10.976;2022-11-11T05:02:17;12.93;;;10.50;;
48199;SDS011;33990;44.602;10.976;2022-11-11T05:05:22;12.35;;;10.85;;
48199;SDS011;33990;44.602;10.976;2022-11-11T05:08:09;12.88;;;10.65;;
48199;SDS011;33990;44.602;10.976;2022-11-11T05:11:13;10.65;;;9.55;;
48199;SDS011;33990;44.602;10.976;2022-11-11T05:14:00;11.93;;;10.07;;
48199;SDS011;33990;44.602;10.976;2022-11-11T05:17:07;10.40;;;9.40;;
48199;SDS011;33990;44.602;10.976;2022-11-11T05:20:12;10.40;;;9.40;;
48199;SDS011;33990;44.602;10.976;2022-11-11T05:23:24;11.50;;;10.35;;
48199;SDS011;33990;44.602;10.976;2022-11-11T05:26:30;10.85;;;9.75;;
48199;SDS011;33990;44.602;10.976;2022-11-11T05:29:17;10.43;;;9.05;;
48199;SDS011;33990;44.602;10.976;2022-11-11T05:32:03;13.30;;;11.02;;
48199;SDS011;33990;44.602;10.976;2022-11-11T05:34:49;11.25;;;10.10;;
48199;SDS011;33990;44.602;10.976;2022-11-11T05:37:35;11.70;;;10.50;;
48199;SDS011;33990;44.602;10.976;2022-11-11T05:40:21;10.98;;;9.88;;
48199;SDS011;33990;44.602;10.976;2022-11-11T05:43:07;11.45;;;10.00;;
48199;SDS011;33990;44.602;10.976;2022-11-11T05:45:53;11.30;;;10.20;;
48199;SDS011;33990;44.602;10.976;2022-11-11T05:48:38;12.90;;;10.80;;
48199;SDS011;33990;44.602;10.976;2022-11-11T05:51:44;12.32;;;10.13;;
48199;SDS011;33990;44.602;10.976;2022-11-11T05:54:31;13.85;;;10.82;;
48199;SDS011;33990;44.602;10.976;2022-11-11T05:57:17;11.82;;;10.20;;
48199;SDS011;33990;44.602;10.976;2022-11-11T06:00:03;12.65;;;10.82;;
48199;SDS011;33990;44.602;10.976;2022-11-11T06:02:49;11.50;;;10.30;;
48199;SDS011;33990;44.602;10.976;2022-11-11T06:05:36;13.48;;;10.82;;
48199;SDS011;33990;44.602;10.976;2022-11-11T06:08:22;12.32;;;10.88;;
48199;SDS011;33990;44.602;10.976;2022-11-11T06:11:08;11.70;;;10.50;;
48199;SDS011;33990;44.602;10.976;2022-11-11T06:13:54;11.63;;;10.43;;
48199;SDS011;33990;44.602;10.976;2022-11-11T06:16:40;11.20;;;9.85;;
48199;SDS011;33990;44.602;10.976;2022-11-11T06:19:26;13.20;;;11.77;;
48199;SDS011;33990;44.602;10.976;2022-11-11T06:22:12;12.90;;;10.57;;
48199;SDS011;33990;44.602;10.976;2022-11-11T06:24:58;11.80;;;10.55;;
48199;SDS011;33990;44.602;10.976;2022-11-11T06:28:03;12.20;;;10.95;;
48199;SDS011;33990;44.602;10.976;2022-11-11T06:30:49;11.77;;;10.32;;
48199;SDS011;33990;44.602;10.976;2022-11-11T06:33:36;11.45;;;10.18;;
48199;SDS011;33990;44.602;10.976;2022-11-11T06:36:23;10.95;;;9.82;;
48199;SDS011;33990;44.602;10.976;2022-11-11T06:39:09;12.60;;;10.85;;
48199;SDS011;33990;44.602;10.976;2022-11-11T06:41:55;12.43;;;11.13;;
48199;SDS011;33990;44.602;10.976;2022-11-11T06:44:41;11.35;;;10.18;;
48199;SDS011;33990;44.602;10.976;2022-11-11T06:47:27;12.38;;;11.00;;
48199;SDS011;33990;44.602;10.976;2022-11-11T06:50:13;11.57;;;10.38;;
48199;SDS011;33990;44.602;10.976;2022-11-11T06:53:06;10.43;;;9.40;;
48199;SDS011;33990;44.602;10.976;2022-11-11T06:55:53;12.35;;;11.05;;
48199;SDS011;33990;44.602;10.976;2022-11-11T06:58:40;13.15;;;10.38;;
48199;SDS011;33990;44.602;10.976;2022-11-11T07:01:26;12.75;;;11.30;;
48199;SDS011;33990;44.602;10.976;2022-11-11T07:04:12;12.27;;;11.00;;
48199;SDS011;33990;44.602;10.976;2022-11-11T07:06:58;12.02;;;10.77;;
48199;SDS011;33990;44.602;10.976;2022-11-11T07:09:44;12.82;;;11.23;;
48199;SDS011;33990;44.602;10.976;2022-11-11T07:12:29;12.30;;;11.00;;
48199;SDS011;33990;44.602;10.976;2022-11-11T07:15:15;11.88;;;10.68;;
48199;SDS011;33990;44.602;10.976;2022-11-11T07:18:01;11.88;;;10.45;;
48199;SDS011;33990;44.602;10.976;2022-11-11T07:20:48;11.95;;;10.75;;
48199;SDS011;33990;44.602;10.976;2022-11-11T07:23:34;13.10;;;10.38;;
48199;SDS011;33990;44.602;10.976;2022-11-11T07:26:20;13.57;;;11.02;;
48199;SDS011;33990;44.602;10.976;2022-11-11T07:29:06;11.95;;;9.93;;
48199;SDS011;33990;44.602;10.976;2022-11-11T07:31:52;13.25;;;11.02;;
48199;SDS011;33990;44.602;10.976;2022-11-11T07:34:37;12.40;;;10.27;;
48199;SDS011;33990;44.602;10.976;2022-11-11T07:37:23;14.85;;;11.63;;
48199;SDS011;33990;44.602;10.976;2022-11-11T07:40:13;13.98;;;10.70;;
48199;SDS011;33990;44.602;10.976;2022-11-11T07:43:00;12.43;;;10.48;;
48199;SDS011;33990;44.602;10.976;2022-11-11T07:45:46;13.38;;;11.98;;
48199;SDS011;33990;44.602;10.976;2022-11-11T07:48:32;14.23;;;12.73;;
48199;SDS011;33990;44.602;10.976;2022-11-11T07:51:18;14.57;;;12.48;;
48199;SDS011;33990;44.602;10.976;2022-11-11T07:54:04;15.32;;;11.65;;
48199;SDS011;33990;44.602;10.976;2022-11-11T07:56:50;13.10;;;11.50;;
48199;SDS011;33990;44.602;10.976;2022-11-11T07:59:36;13.48;;;12.07;;
48199;SDS011;33990;44.602;10.976;2022-11-11T08:02:22;17.30;;;12.20;;
48199;SDS011;33990;44.602;10.976;2022-11-11T08:05:08;16.40;;;14.02;;
48199;SDS011;33990;44.602;10.976;2022-11-11T08:07:54;16.15;;;13.52;;
48199;SDS011;33990;44.602;10.976;2022-11-11T08:10:40;14.55;;;12.23;;
48199;SDS011;33990;44.602;10.976;2022-11-11T08:13:26;12.27;;;10.98;;
48199;SDS011;33990;44.602;10.976;2022-11-11T08:16:27;14.80;;;12.35;;
48199;SDS011;33990;44.602;10.976;2022-11-11T08:19:13;13.57;;;11.55;;
48199;SDS011;33990;44.602;10.976;2022-11-11T08:21:59;13.90;;;12.50;;
48199;SDS011;33990;44.602;10.976;2022-11-11T08:24:45;19.40;;;13.95;;
48199;SDS011;33990;44.602;10.976;2022-11-11T08:27:48;16.13;;;13.93;;
48199;SDS011;33990;44.602;10.976;2022-11-11T08:30:34;17.38;;;15.30;;
48199;SDS011;33990;44.602;10.976;2022-11-11T08:33:20;19.20;;;15.95;;
48199;SDS011;33990;44.602;10.976;2022-11-11T08:36:21;21.40;;;17.88;;
48199;SDS011;33990;44.602;10.976;2022-11-11T08:39:08;20.20;;;17.33;;
48199;SDS011;33990;44.602;10.976;2022-11-11T08:41:54;21.45;;;17.83;;
48199;SDS011;33990;44.602;10.976;2022-11-11T08:44:39;20.30;;;17.55;;
48199;SDS011;33990;44.602;10.976;2022-11-11T08:47:25;22.17;;;19.83;;
48199;SDS011;33990;44.602;10.976;2022-11-11T08:50:11;21.67;;;18.23;;
48199;SDS011;33990;44.602;10.976;2022-11-11T08:52:57;23.73;;;19.17;;
48199;SDS011;33990;44.602;10.976;2022-11-11T08:55:43;26.13;;;19.67;;
48199;SDS011;33990;44.602;10.976;2022-11-11T08:58:29;27.90;;;21.42;;
48199;SDS011;33990;44.602;10.976;2022-11-11T09:01:15;22.40;;;19.67;;
48199;SDS011;33990;44.602;10.976;2022-11-11T09:04:01;25.27;;;20.80;;
48199;SDS011;33990;44.602;10.976;2022-11-11T09:07:07;28.58;;;21.90;;
48199;SDS011;33990;44.602;10.976;2022-11-11T09:09:54;26.10;;;20.65;;
48199;SDS011;33990;44.602;10.976;2022-11-11T09:12:40;35.45;;;29.65;;
48199;SDS011;33990;44.602;10.976;2022-11-11T09:15:27;43.50;;;36.80;;
48199;SDS011;33990;44.602;10.976;2022-11-11T09:18:13;49.67;;;38.80;;
48199;SDS011;33990;44.602;10.976;2022-11-11T09:20:59;47.63;;;38.38;;
48199;SDS011;33990;44.602;10.976;2022-11-11T09:23:45;46.47;;;37.00;;
48199;SDS011;33990;44.602;10.976;2022-11-11T09:26:31;46.17;;;36.15;;
48199;SDS011;33990;44.602;10.976;2022-11-11T09:29:17;46.85;;;36.13;;
48199;SDS011;33990;44.602;10.976;2022-11-11T09:32:03;42.08;;;35.17;;
48199;SDS011;33990;44.602;10.976;2022-11-11T09:34:49;44.80;;;38.50;;
48199;SDS011;33990;44.602;10.976;2022-11-11T09:37:35;51.83;;;41.40;;
48199;SDS011;33990;44.602;10.976;2022-11-11T09:40:22;52.65;;;39.63;;
48199;SDS011;33990;44.602;10.976;2022-11-11T09:46:46;52.55;;;41.65;;
48199;SDS011;33990;44.602;10.976;2022-11-11T09:49:47;47.80;;;38.70;;
48199;SDS011;33990;44.602;10.976;2022-11-11T09:55:29;47.50;;;41.42;;
48199;SDS011;33990;44.602;10.976;2022-11-11T10:04:07;51.80;;;40.42;;
48199;SDS011;33990;44.602;10.976;2022-11-11T10:07:06;50.28;;;40.72;;
48199;SDS011;33990;44.602;10.976;2022-11-11T10:12:57;44.15;;;35.53;;
48199;SDS011;33990;44.602;10.976;2022-11-11T10:21:50;34.03;;;28.08;;
48199;SDS011;33990;44.602;10.976;2022-11-11T10:27:58;31.25;;;25.50;;
48199;SDS011;33990;44.602;10.976;2022-11-11T10:30:46;31.00;;;25.17;;
48199;SDS011;33990;44.602;10.976;2022-11-11T10:33:47;30.67;;;26.00;;
48199;SDS011;33990;44.602;10.976;2022-11-11T10:36:35;30.38;;;24.13;;
48199;SDS011;33990;44.602;10.976;2022-11-11T10:42:51;29.63;;;24.52;;
48199;SDS011;33990;44.602;10.976;2022-11-11T10:45:46;37.53;;;28.65;;
48199;SDS011;33990;44.602;10.976;2022-11-11T10:55:42;32.88;;;25.92;;
48199;SDS011;33990;44.602;10.976;2022-11-11T10:58:41;30.90;;;24.27;;
48199;SDS011;33990;44.602;10.976;2022-11-11T11:01:35;30.08;;;23.80;;
48199;SDS011;33990;44.602;10.976;2022-11-11T11:04:35;29.00;;;23.05;;
48199;SDS011;33990;44.602;10.976;2022-11-11T11:07:26;29.70;;;23.92;;
48199;SDS011;33990;44.602;10.976;2022-11-11T11:10:24;29.55;;;23.98;;
48199;SDS011;33990;44.602;10.976;2022-11-11T11:13:22;28.67;;;23.30;;
48199;SDS011;33990;44.602;10.976;2022-11-11T11:16:21;29.48;;;24.02;;
48199;SDS011;33990;44.602;10.976;2022-11-11T11:19:23;29.40;;;24.42;;
48199;SDS011;33990;44.602;10.976;2022-11-11T11:22:10;26.52;;;21.35;;
48199;SDS011;33990;44.602;10.976;2022-11-11T11:25:09;27.38;;;22.40;;
48199;SDS011;33990;44.602;10.976;2022-11-11T11:28:04;24.83;;;21.33;;
48199;SDS011;33990;44.602;10.976;2022-11-11T11:30:58;25.65;;;21.95;;
48199;SDS011;33990;44.602;10.976;2022-11-11T11:33:53;26.67;;;22.00;;
48199;SDS011;33990;44.602;10.976;2022-11-11T11:36:41;30.65;;;23.85;;
48199;SDS011;33990;44.602;10.976;2022-11-11T11:39:36;25.85;;;22.15;;
48199;SDS011;33990;44.602;10.976;2022-11-11T11:45:22;34.65;;;25.83;;
48199;SDS011;33990;44.602;10.976;2022-11-11T11:48:52;31.77;;;24.45;;
48199;SDS011;33990;44.602;10.976;2022-11-11T11:57:38;32.72;;;23.95;;
48199;SDS011;33990;44.602;10.976;2022-11-11T12:00:34;32.90;;;24.08;;
48199;SDS011;33990;44.602;10.976;2022-11-11T12:09:56;28.50;;;21.63;;
48199;SDS011;33990;44.602;10.976;2022-11-11T12:19:00;29.92;;;21.40;;
48199;SDS011;33990;44.602;10.976;2022-11-11T12:30:50;26.10;;;19.70;;
48199;SDS011;33990;44.602;10.976;2022-11-11T12:56:12;22.65;;;17.75;;
48199;SDS011;33990;44.602;10.976;2022-11-11T12:59:36;23.65;;;16.90;;
48199;SDS011;33990;44.602;10.976;2022-11-11T13:15:04;17.92;;;14.60;;
48199;SDS011;33990;44.602;10.976;2022-11-11T13:18:00;18.85;;;14.35;;
48199;SDS011;33990;44.602;10.976;2022-11-11T13:23:39;17.42;;;13.10;;
48199;SDS011;33990;44.602;10.976;2022-11-11T13:26:26;16.67;;;14.07;;
48199;SDS011;33990;44.602;10.976;2022-11-11T13:32:33;16.70;;;13.25;;
48199;SDS011;33990;44.602;10.976;2022-11-11T13:35:44;17.42;;;14.43;;
48199;SDS011;33990;44.602;10.976;2022-11-11T13:38:45;18.42;;;13.48;;
48199;SDS011;33990;44.602;10.976;2022-11-11T13:41:36;17.63;;;12.70;;
48199;SDS011;33990;44.602;10.976;2022-11-11T13:44:29;15.40;;;12.20;;
48199;SDS011;33990;44.602;10.976;2022-11-11T13:47:20;16.88;;;12.05;;
48199;SDS011;33990;44.602;10.976;2022-11-11T13:50:25;15.60;;;12.90;;
48199;SDS011;33990;44.602;10.976;2022-11-11T13:53:48;14.20;;;12.07;;
48199;SDS011;33990;44.602;10.976;2022-11-11T13:59:25;15.20;;;12.13;;
48199;SDS011;33990;44.602;10.976;2022-11-11T14:07:51;14.80;;;11.05;;
48199;SDS011;33990;44.602;10.976;2022-11-11T14:10:46;12.73;;;10.80;;
48199;SDS011;33990;44.602;10.976;2022-11-11T14:13:44;13.25;;;10.35;;
48199;SDS011;33990;44.602;10.976;2022-11-11T14:25:21;15.02;;;9.80;;
48199;SDS011;33990;44.602;10.976;2022-11-11T14:28:21;14.45;;;10.27;;
48199;SDS011;33990;44.602;10.976;2022-11-11T14:34:05;11.65;;;9.10;;
48199;SDS011;33990;44.602;10.976;2022-11-11T14:36:58;12.63;;;9.60;;
48199;SDS011;33990;44.602;10.976;2022-11-11T14:40:00;14.70;;;9.77;;
48199;SDS011;33990;44.602;10.976;2022-11-11T14:42:46;11.88;;;9.02;;
48199;SDS011;33990;44.602;10.976;2022-11-11T14:51:50;11.88;;;8.95;;
48199;SDS011;33990;44.602;10.976;2022-11-11T14:57:38;9.75;;;8.20;;
48199;SDS011;33990;44.602;10.976;2022-11-11T15:00:27;9.18;;;7.20;;
48199;SDS011;33990;44.602;10.976;2022-11-11T15:09:56;12.23;;;9.23;;
48199;SDS011;33990;44.602;10.976;2022-11-11T15:13:07;11.23;;;8.98;;
48199;SDS011;33990;44.602;10.976;2022-11-11T15:27:59;10.98;;;9.70;;
48199;SDS011;33990;44.602;10.976;2022-11-11T15:34:18;12.45;;;10.07;;
48199;SDS011;33990;44.602;10.976;2022-11-11T15:37:15;12.10;;;9.18;;
48199;SDS011;33990;44.602;10.976;2022-11-11T15:40:04;12.25;;;8.98;;
48199;SDS011;33990;44.602;10.976;2022-11-11T15:42:51;14.18;;;10.27;;
48199;SDS011;33990;44.602;10.976;2022-11-11T15:45:38;12.95;;;9.10;;
48199;SDS011;33990;44.602;10.976;2022-11-11T15:48:26;10.45;;;9.35;;
48199;SDS011;33990;44.602;10.976;2022-11-11T15:51:16;12.15;;;9.82;;
48199;SDS011;33990;44.602;10.976;2022-11-11T16:03:12;13.63;;;9.73;;
48199;SDS011;33990;44.602;10.976;2022-11-11T16:06:01;12.00;;;8.90;;
48199;SDS011;33990;44.602;10.976;2022-11-11T16:08:50;13.05;;;9.50;;
48199;SDS011;33990;44.602;10.976;2022-11-11T16:11:38;14.60;;;10.10;;
48199;SDS011;33990;44.602;10.976;2022-11-11T16:17:22;13.02;;;10.80;;
48199;SDS011;33990;44.602;10.976;2022-11-11T16:20:14;16.20;;;11.52;;
48199;SDS011;33990;44.602;10.976;2022-11-11T16:23:01;14.27;;;10.48;;
48199;SDS011;33990;44.602;10.976;2022-11-11T16:25:51;15.15;;;10.75;;
48199;SDS011;33990;44.602;10.976;2022-11-11T16:28:42;15.02;;;11.05;;
48199;SDS011;33990;44.602;10.976;2022-11-11T16:37:14;12.75;;;10.43;;
48199;SDS011;33990;44.602;10.976;2022-11-11T16:43:14;14.65;;;10.35;;
48199;SDS011;33990;44.602;10.976;2022-11-11T16:46:36;14.32;;;11.00;;
48199;SDS011;33990;44.602;10.976;2022-11-11T16:49:26;15.70;;;11.02;;
48199;SDS011;33990;44.602;10.976;2022-11-11T16:52:20;15.90;;;11.20;;
48199;SDS011;33990;44.602;10.976;2022-11-11T17:01:02;14.40;;;11.85;;
48199;SDS011;33990;44.602;10.976;2022-11-11T17:03:51;12.73;;;9.23;;
48199;SDS011;33990;44.602;10.976;2022-11-11T17:09:37;12.68;;;9.85;;
48199;SDS011;33990;44.602;10.976;2022-11-11T17:12:28;13.18;;;10.32;;
48199;SDS011;33990;44.602;10.976;2022-11-11T17:15:17;14.48;;;10.77;;
48199;SDS011;33990;44.602;10.976;2022-11-11T17:18:05;13.32;;;11.25;;
48199;SDS011;33990;44.602;10.976;2022-11-11T17:20:53;13.52;;;10.02;;
48199;SDS011;33990;44.602;10.976;2022-11-11T17:23:42;13.43;;;9.75;;
48199;SDS011;33990;44.602;10.976;2022-11-11T17:26:28;12.90;;;10.43;;
48199;SDS011;33990;44.602;10.976;2022-11-11T17:29:14;12.57;;;9.70;;
48199;SDS011;33990;44.602;10.976;2022-11-11T17:31:59;13.40;;;10.55;;
48199;SDS011;33990;44.602;10.976;2022-11-11T17:34:46;14.80;;;10.63;;
48199;SDS011;33990;44.602;10.976;2022-11-11T17:37:32;14.07;;;9.85;;
48199;SDS011;33990;44.602;10.976;2022-11-11T17:40:19;13.43;;;10.05;;
48199;SDS011;33990;44.602;10.976;2022-11-11T17:43:05;15.57;;;10.95;;
48199;SDS011;33990;44.602;10.976;2022-11-11T17:45:51;14.07;;;10.43;;
48199;SDS011;33990;44.602;10.976;2022-11-11T17:48:37;13.13;;;10.45;;
48199;SDS011;33990;44.602;10.976;2022-11-11T17:51:23;11.93;;;9.63;;
48199;SDS011;33990;44.602;10.976;2022-11-11T17:54:09;14.82;;;10.10;;
48199;SDS011;33990;44.602;10.976;2022-11-11T17:56:55;15.38;;;11.05;;
48199;SDS011;33990;44.602;10.976;2022-11-11T17:59:43;13.02;;;10.55;;
48199;SDS011;33990;44.602;10.976;2022-11-11T18:02:29;12.35;;;9.65;;
48199;SDS011;33990;44.602;10.976;2022-11-11T18:05:15;15.38;;;10.40;;
48199;SDS011;33990;44.602;10.976;2022-11-11T18:08:01;12.63;;;9.88;;
48199;SDS011;33990;44.602;10.976;2022-11-11T18:10:48;12.57;;;9.85;;
48199;SDS011;33990;44.602;10.976;2022-11-11T18:13:34;12.63;;;10.48;;
48199;SDS011;33990;44.602;10.976;2022-11-11T18:16:21;12.80;;;9.90;;
48199;SDS011;33990;44.602;10.976;2022-11-11T18:19:07;13.75;;;10.73;;
48199;SDS011;33990;44.602;10.976;2022-11-11T18:21:55;12.32;;;10.13;;
48199;SDS011;33990;44.602;10.976;2022-11-11T18:24:41;12.43;;;10.32;;
48199;SDS011;33990;44.602;10.976;2022-11-11T18:27:27;12.77;;;9.93;;
48199;SDS011;33990;44.602;10.976;2022-11-11T18:30:13;16.60;;;11.63;;
48199;SDS011;33990;44.602;10.976;2022-11-11T18:33:00;13.13;;;10.65;;
48199;SDS011;33990;44.602;10.976;2022-11-11T18:35:47;15.00;;;11.55;;
48199;SDS011;33990;44.602;10.976;2022-11-11T18:38:33;13.50;;;10.63;;
48199;SDS011;33990;44.602;10.976;2022-11-11T18:41:21;12.73;;;10.95;;
48199;SDS011;33990;44.602;10.976;2022-11-11T18:44:08;13.07;;;10.55;;
48199;SDS011;33990;44.602;10.976;2022-11-11T18:46:54;13.35;;;10.75;;
48199;SDS011;33990;44.602;10.976;2022-11-11T18:49:39;12.30;;;10.85;;
48199;SDS011;33990;44.602;10.976;2022-11-11T18:52:25;15.57;;;11.85;;
48199;SDS011;33990;44.602;10.976;2022-11-11T18:55:11;13.00;;;10.48;;
48199;SDS011;33990;44.602;10.976;2022-11-11T18:57:57;16.45;;;11.13;;
48199;SDS011;33990;44.602;10.976;2022-11-11T19:00:43;15.13;;;11.45;;
48199;SDS011;33990;44.602;10.976;2022-11-11T19:03:29;12.88;;;10.38;;
48199;SDS011;33990;44.602;10.976;2022-11-11T19:06:15;13.77;;;11.02;;
48199;SDS011;33990;44.602;10.976;2022-11-11T19:09:11;12.30;;;11.00;;
48199;SDS011;33990;44.602;10.976;2022-11-11T19:11:58;14.65;;;10.45;;
48199;SDS011;33990;44.602;10.976;2022-11-11T19:14:44;13.95;;;10.88;;
48199;SDS011;33990;44.602;10.976;2022-11-11T19:17:30;13.10;;;10.55;;
48199;SDS011;33990;44.602;10.976;2022-11-11T19:20:16;11.65;;;10.25;;
48199;SDS011;33990;44.602;10.976;2022-11-11T19:23:02;12.10;;;9.98;;
48199;SDS011;33990;44.602;10.976;2022-11-11T19:25:48;12.13;;;10.10;;
48199;SDS011;33990;44.602;10.976;2022-11-11T19:28:34;13.35;;;10.07;;
48199;SDS011;33990;44.602;10.976;2022-11-11T19:31:25;11.30;;;9.20;;
48199;SDS011;33990;44.602;10.976;2022-11-11T19:34:13;13.95;;;10.75;;
48199;SDS011;33990;44.602;10.976;2022-11-11T19:36:59;12.38;;;10.80;;
48199;SDS011;33990;44.602;10.976;2022-11-11T19:39:45;13.18;;;10.18;;
48199;SDS011;33990;44.602;10.976;2022-11-11T19:42:30;13.93;;;10.55;;